sensor_id;sensor_type;location;lat;lon;timestamp;P1;durP1;ratioP1;P2;durP2;ratioP2
19848;SDS011;10085;51.120;6.956;2022-10-16T00:02:28;23.38;;;11.55;;
19848;SDS011;10085;51.120;6.956;2022-10-16T00:07:31;25.85;;;12.10;;
19848;SDS011;10085;51.120;6.956;2022-10-16T00:12:35;24.60;;;11.13;;
19848;SDS011;10085;51.120;6.956;2022-10-16T00:17:38;22.33;;;10.80;;
19848;SDS011;10085;51.120;6.956;2022-10-16T00:22:41;25.77;;;11.23;;
19848;SDS011;10085;51.120;6.956;2022-10-16T00:27:45;20.23;;;10.30;;
19848;SDS011;10085;51.120;6.956;2022-10-16T00:32:47;16.30;;;9.45;;
19848;SDS011;10085;51.120;6.956;2022-10-16T00:37:50;20.95;;;9.35;;
19848;SDS011;10085;51.120;6.956;2022-10-16T00:42:54;19.65;;;8.93;;
19848;SDS011;10085;51.120;6.956;2022-10-16T00:47:57;19.67;;;9.57;;
19848;SDS011;10085;51.120;6.956;2022-10-16T00:53:00;15.15;;;8.13;;
19848;SDS011;10085;51.120;6.956;2022-10-16T00:58:04;15.93;;;8.32;;
19848;SDS011;10085;51.120;6.956;2022-10-16T01:03:21;15.13;;;8.30;;
19848;SDS011;10085;51.120;6.956;2022-10-16T01:08:27;16.73;;;7.90;;
19848;SDS011;10085;51.120;6.956;2022-10-16T01:13:37;18.38;;;8.48;;
19848;SDS011;10085;51.120;6.956;2022-10-16T01:18:45;17.52;;;8.20;;
19848;SDS011;10085;51.120;6.956;2022-10-16T01:23:51;15.02;;;7.55;;
19848;SDS011;10085;51.120;6.956;2022-10-16T01:29:01;13.05;;;6.85;;
19848;SDS011;10085;51.120;6.956;2022-10-16T01:34:08;15.88;;;7.30;;
19848;SDS011;10085;51.120;6.956;2022-10-16T01:39:14;14.60;;;7.45;;
19848;SDS011;10085;51.120;6.956;2022-10-16T01:44:19;12.48;;;6.55;;
19848;SDS011;10085;51.120;6.956;2022-10-16T01:49:26;13.57;;;6.88;;
19848;SDS011;10085;51.120;6.956;2022-10-16T01:54:30;12.25;;;6.70;;
19848;SDS011;10085;51.120;6.956;2022-10-16T01:59:40;11.90;;;6.07;;
19848;SDS011;10085;51.120;6.956;2022-10-16T02:04:45;11.32;;;5.80;;
19848;SDS011;10085;51.120;6.956;2022-10-16T02:09:50;12.88;;;5.88;;
19848;SDS011;10085;51.120;6.956;2022-10-16T02:14:54;10.88;;;5.85;;
19848;SDS011;10085;51.120;6.956;2022-10-16T02:19:56;11.02;;;5.85;;
19848;SDS011;10085;51.120;6.956;2022-10-16T02:25:01;9.65;;;5.40;;
19848;SDS011;10085;51.120;6.956;2022-10-16T02:30:07;9.93;;;5.43;;
19848;SDS011;10085;51.120;6.956;2022-10-16T02:35:15;9.05;;;5.20;;
19848;SDS011;10085;51.120;6.956;2022-10-16T02:40:18;10.80;;;5.60;;
19848;SDS011;10085;51.120;6.956;2022-10-16T02:45:27;9.93;;;5.22;;
19848;SDS011;10085;51.120;6.956;2022-10-16T02:50:30;8.40;;;4.60;;
19848;SDS011;10085;51.120;6.956;2022-10-16T02:55:33;7.68;;;4.95;;
19848;SDS011;10085;51.120;6.956;2022-10-16T03:00:37;9.15;;;4.82;;
19848;SDS011;10085;51.120;6.956;2022-10-16T03:05:39;9.77;;;5.72;;
19848;SDS011;10085;51.120;6.956;2022-10-16T03:10:42;9.13;;;5.22;;
19848;SDS011;10085;51.120;6.956;2022-10-16T03:15:46;9.52;;;5.22;;
19848;SDS011;10085;51.120;6.956;2022-10-16T03:20:49;9.05;;;4.88;;
19848;SDS011;10085;51.120;6.956;2022-10-16T03:25:52;10.38;;;4.72;;
19848;SDS011;10085;51.120;6.956;2022-10-16T03:30:56;8.80;;;4.65;;
19848;SDS011;10085;51.120;6.956;2022-10-16T03:35:59;7.93;;;4.63;;
19848;SDS011;10085;51.120;6.956;2022-10-16T03:41:01;7.97;;;4.68;;
19848;SDS011;10085;51.120;6.956;2022-10-16T03:46:06;7.25;;;4.25;;
19848;SDS011;10085;51.120;6.956;2022-10-16T03:51:09;8.15;;;4.53;;
19848;SDS011;10085;51.120;6.956;2022-10-16T03:56:11;8.35;;;4.47;;
19848;SDS011;10085;51.120;6.956;2022-10-16T04:01:17;6.47;;;3.92;;
19848;SDS011;10085;51.120;6.956;2022-10-16T04:06:19;6.15;;;3.92;;
19848;SDS011;10085;51.120;6.956;2022-10-16T04:11:22;8.65;;;4.60;;
19848;SDS011;10085;51.120;6.956;2022-10-16T04:16:26;7.78;;;4.00;;
19848;SDS011;10085;51.120;6.956;2022-10-16T04:21:29;5.70;;;3.90;;
19848;SDS011;10085;51.120;6.956;2022-10-16T04:26:32;6.40;;;3.80;;
19848;SDS011;10085;51.120;6.956;2022-10-16T04:31:36;6.32;;;3.58;;
19848;SDS011;10085;51.120;6.956;2022-10-16T04:36:39;8.20;;;3.75;;
19848;SDS011;10085;51.120;6.956;2022-10-16T04:41:41;6.38;;;3.67;;
19848;SDS011;10085;51.120;6.956;2022-10-16T04:46:46;5.78;;;3.90;;
19848;SDS011;10085;51.120;6.956;2022-10-16T04:51:48;6.60;;;3.42;;
19848;SDS011;10085;51.120;6.956;2022-10-16T04:56:51;5.05;;;3.22;;
19848;SDS011;10085;51.120;6.956;2022-10-16T05:01:55;6.15;;;3.40;;
19848;SDS011;10085;51.120;6.956;2022-10-16T05:06:58;6.10;;;3.30;;
19848;SDS011;10085;51.120;6.956;2022-10-16T05:12:02;4.75;;;3.20;;
19848;SDS011;10085;51.120;6.956;2022-10-16T05:17:06;6.60;;;3.58;;
19848;SDS011;10085;51.120;6.956;2022-10-16T05:22:09;6.85;;;4.30;;
19848;SDS011;10085;51.120;6.956;2022-10-16T05:27:12;7.93;;;3.90;;
19848;SDS011;10085;51.120;6.956;2022-10-16T05:32:21;8.32;;;3.97;;
19848;SDS011;10085;51.120;6.956;2022-10-16T05:37:24;6.75;;;3.90;;
19848;SDS011;10085;51.120;6.956;2022-10-16T05:42:27;8.88;;;3.53;;
19848;SDS011;10085;51.120;6.956;2022-10-16T05:47:31;7.63;;;3.92;;
19848;SDS011;10085;51.120;6.956;2022-10-16T05:52:34;9.38;;;3.65;;
19848;SDS011;10085;51.120;6.956;2022-10-16T05:57:37;9.55;;;3.50;;
19848;SDS011;10085;51.120;6.956;2022-10-16T06:02:41;5.28;;;3.33;;
19848;SDS011;10085;51.120;6.956;2022-10-16T06:07:44;5.88;;;3.50;;
19848;SDS011;10085;51.120;6.956;2022-10-16T06:12:46;7.53;;;3.97;;
19848;SDS011;10085;51.120;6.956;2022-10-16T06:17:50;7.07;;;3.50;;
19848;SDS011;10085;51.120;6.956;2022-10-16T06:22:53;6.03;;;3.30;;
19848;SDS011;10085;51.120;6.956;2022-10-16T06:27:56;5.35;;;3.20;;
19848;SDS011;10085;51.120;6.956;2022-10-16T06:33:00;6.13;;;2.92;;
19848;SDS011;10085;51.120;6.956;2022-10-16T06:38:03;4.70;;;2.92;;
19848;SDS011;10085;51.120;6.956;2022-10-16T06:43:05;3.70;;;2.90;;
19848;SDS011;10085;51.120;6.956;2022-10-16T06:48:09;4.50;;;2.88;;
19848;SDS011;10085;51.120;6.956;2022-10-16T06:53:12;3.72;;;2.83;;
19848;SDS011;10085;51.120;6.956;2022-10-16T06:58:15;4.45;;;3.00;;
19848;SDS011;10085;51.120;6.956;2022-10-16T07:03:19;3.90;;;2.60;;
19848;SDS011;10085;51.120;6.956;2022-10-16T07:08:22;4.80;;;2.72;;
19848;SDS011;10085;51.120;6.956;2022-10-16T07:13:24;4.20;;;2.97;;
19848;SDS011;10085;51.120;6.956;2022-10-16T07:18:28;3.63;;;2.40;;
19848;SDS011;10085;51.120;6.956;2022-10-16T07:23:33;4.43;;;2.75;;
19848;SDS011;10085;51.120;6.956;2022-10-16T07:28:36;3.35;;;2.42;;
19848;SDS011;10085;51.120;6.956;2022-10-16T07:33:41;4.63;;;2.88;;
19848;SDS011;10085;51.120;6.956;2022-10-16T07:38:45;4.88;;;2.63;;
19848;SDS011;10085;51.120;6.956;2022-10-16T07:43:49;5.03;;;2.35;;
19848;SDS011;10085;51.120;6.956;2022-10-16T07:48:54;4.28;;;2.35;;
19848;SDS011;10085;51.120;6.956;2022-10-16T07:53:56;3.85;;;2.50;;
19848;SDS011;10085;51.120;6.956;2022-10-16T07:58:59;3.33;;;2.10;;
19848;SDS011;10085;51.120;6.956;2022-10-16T08:04:04;4.05;;;2.58;;
19848;SDS011;10085;51.120;6.956;2022-10-16T08:09:08;2.42;;;2.10;;
19848;SDS011;10085;51.120;6.956;2022-10-16T08:14:10;3.10;;;2.47;;
19848;SDS011;10085;51.120;6.956;2022-10-16T08:19:15;4.38;;;2.20;;
19848;SDS011;10085;51.120;6.956;2022-10-16T08:24:17;3.70;;;2.00;;
19848;SDS011;10085;51.120;6.956;2022-10-16T08:29:20;4.55;;;2.05;;
19848;SDS011;10085;51.120;6.956;2022-10-16T08:34:24;3.15;;;2.40;;
19848;SDS011;10085;51.120;6.956;2022-10-16T08:39:27;3.35;;;1.98;;
19848;SDS011;10085;51.120;6.956;2022-10-16T08:44:32;2.28;;;1.95;;
19848;SDS011;10085;51.120;6.956;2022-10-16T08:49:47;4.30;;;2.13;;
19848;SDS011;10085;51.120;6.956;2022-10-16T08:54:56;4.40;;;2.20;;
19848;SDS011;10085;51.120;6.956;2022-10-16T08:59:59;2.70;;;2.00;;
19848;SDS011;10085;51.120;6.956;2022-10-16T09:05:14;2.47;;;1.85;;
19848;SDS011;10085;51.120;6.956;2022-10-16T09:10:27;2.38;;;1.98;;
19848;SDS011;10085;51.120;6.956;2022-10-16T09:15:38;2.47;;;1.80;;
19848;SDS011;10085;51.120;6.956;2022-10-16T09:20:48;2.20;;;1.90;;
19848;SDS011;10085;51.120;6.956;2022-10-16T09:25:53;2.15;;;1.90;;
19848;SDS011;10085;51.120;6.956;2022-10-16T09:30:56;3.25;;;1.90;;
19848;SDS011;10085;51.120;6.956;2022-10-16T09:36:00;3.05;;;1.85;;
19848;SDS011;10085;51.120;6.956;2022-10-16T09:41:12;2.72;;;1.95;;
19848;SDS011;10085;51.120;6.956;2022-10-16T09:46:21;2.45;;;1.80;;
19848;SDS011;10085;51.120;6.956;2022-10-16T09:51:29;2.45;;;1.75;;
19848;SDS011;10085;51.120;6.956;2022-10-16T09:56:33;2.58;;;1.98;;
19848;SDS011;10085;51.120;6.956;2022-10-16T10:01:38;4.18;;;2.00;;
19848;SDS011;10085;51.120;6.956;2022-10-16T10:06:44;2.80;;;1.70;;
19848;SDS011;10085;51.120;6.956;2022-10-16T10:11:49;3.03;;;1.95;;
19848;SDS011;10085;51.120;6.956;2022-10-16T10:17:01;2.65;;;1.77;;
19848;SDS011;10085;51.120;6.956;2022-10-16T10:22:21;4.45;;;1.80;;
19848;SDS011;10085;51.120;6.956;2022-10-16T10:27:30;6.60;;;1.88;;
19848;SDS011;10085;51.120;6.956;2022-10-16T10:32:37;5.10;;;1.83;;
19848;SDS011;10085;51.120;6.956;2022-10-16T10:38:05;4.95;;;2.10;;
19848;SDS011;10085;51.120;6.956;2022-10-16T10:43:17;2.38;;;1.70;;
19848;SDS011;10085;51.120;6.956;2022-10-16T10:48:38;2.38;;;1.73;;
19848;SDS011;10085;51.120;6.956;2022-10-16T10:53:52;1.90;;;1.60;;
19848;SDS011;10085;51.120;6.956;2022-10-16T10:59:07;2.85;;;1.90;;
19848;SDS011;10085;51.120;6.956;2022-10-16T11:04:21;2.17;;;1.42;;
19848;SDS011;10085;51.120;6.956;2022-10-16T11:09:34;3.75;;;1.77;;
19848;SDS011;10085;51.120;6.956;2022-10-16T11:14:40;2.33;;;1.90;;
19848;SDS011;10085;51.120;6.956;2022-10-16T11:19:47;2.97;;;1.90;;
19848;SDS011;10085;51.120;6.956;2022-10-16T11:24:53;3.03;;;2.00;;
19848;SDS011;10085;51.120;6.956;2022-10-16T11:30:03;3.70;;;1.90;;
19848;SDS011;10085;51.120;6.956;2022-10-16T11:35:10;2.47;;;1.58;;
19848;SDS011;10085;51.120;6.956;2022-10-16T11:40:21;3.58;;;1.60;;
19848;SDS011;10085;51.120;6.956;2022-10-16T11:45:26;3.20;;;1.60;;
19848;SDS011;10085;51.120;6.956;2022-10-16T11:50:37;2.70;;;1.90;;
19848;SDS011;10085;51.120;6.956;2022-10-16T11:55:44;2.53;;;1.88;;
19848;SDS011;10085;51.120;6.956;2022-10-16T12:00:51;3.50;;;1.67;;
19848;SDS011;10085;51.120;6.956;2022-10-16T12:06:04;4.15;;;1.90;;
19848;SDS011;10085;51.120;6.956;2022-10-16T12:11:24;3.42;;;1.77;;
19848;SDS011;10085;51.120;6.956;2022-10-16T12:16:36;3.75;;;1.50;;
19848;SDS011;10085;51.120;6.956;2022-10-16T12:21:39;2.65;;;1.73;;
19848;SDS011;10085;51.120;6.956;2022-10-16T12:26:44;3.15;;;1.77;;
19848;SDS011;10085;51.120;6.956;2022-10-16T12:31:48;2.13;;;1.50;;
19848;SDS011;10085;51.120;6.956;2022-10-16T12:37:07;2.95;;;1.55;;
19848;SDS011;10085;51.120;6.956;2022-10-16T12:42:23;2.70;;;1.77;;
19848;SDS011;10085;51.120;6.956;2022-10-16T12:47:46;2.40;;;1.52;;
19848;SDS011;10085;51.120;6.956;2022-10-16T12:52:50;2.50;;;1.70;;
19848;SDS011;10085;51.120;6.956;2022-10-16T12:58:00;1.88;;;1.50;;
19848;SDS011;10085;51.120;6.956;2022-10-16T13:03:20;2.35;;;1.60;;
19848;SDS011;10085;51.120;6.956;2022-10-16T13:08:44;3.55;;;1.70;;
19848;SDS011;10085;51.120;6.956;2022-10-16T13:14:07;3.40;;;1.65;;
19848;SDS011;10085;51.120;6.956;2022-10-16T13:19:21;2.60;;;1.50;;
19848;SDS011;10085;51.120;6.956;2022-10-16T13:24:34;2.15;;;1.48;;
19848;SDS011;10085;51.120;6.956;2022-10-16T13:29:46;2.63;;;1.60;;
19848;SDS011;10085;51.120;6.956;2022-10-16T13:34:54;5.55;;;1.42;;
19848;SDS011;10085;51.120;6.956;2022-10-16T13:40:09;2.47;;;1.50;;
19848;SDS011;10085;51.120;6.956;2022-10-16T13:45:23;2.33;;;1.40;;
19848;SDS011;10085;51.120;6.956;2022-10-16T13:50:27;2.15;;;1.50;;
19848;SDS011;10085;51.120;6.956;2022-10-16T13:55:30;4.85;;;1.95;;
19848;SDS011;10085;51.120;6.956;2022-10-16T14:00:34;6.05;;;1.40;;
19848;SDS011;10085;51.120;6.956;2022-10-16T14:05:40;2.08;;;1.60;;
19848;SDS011;10085;51.120;6.956;2022-10-16T14:10:47;2.85;;;1.80;;
19848;SDS011;10085;51.120;6.956;2022-10-16T14:15:52;2.30;;;1.52;;
19848;SDS011;10085;51.120;6.956;2022-10-16T14:21:02;2.53;;;1.70;;
19848;SDS011;10085;51.120;6.956;2022-10-16T14:26:06;1.83;;;1.60;;
19848;SDS011;10085;51.120;6.956;2022-10-16T14:31:30;2.65;;;1.30;;
19848;SDS011;10085;51.120;6.956;2022-10-16T14:36:33;2.63;;;1.33;;
19848;SDS011;10085;51.120;6.956;2022-10-16T14:41:40;2.97;;;1.30;;
19848;SDS011;10085;51.120;6.956;2022-10-16T14:46:45;4.20;;;1.52;;
19848;SDS011;10085;51.120;6.956;2022-10-16T14:51:48;3.55;;;1.60;;
19848;SDS011;10085;51.120;6.956;2022-10-16T14:56:52;3.67;;;1.50;;
19848;SDS011;10085;51.120;6.956;2022-10-16T15:01:57;1.88;;;1.33;;
19848;SDS011;10085;51.120;6.956;2022-10-16T15:07:00;3.83;;;1.40;;
19848;SDS011;10085;51.120;6.956;2022-10-16T15:12:02;2.03;;;1.42;;
19848;SDS011;10085;51.120;6.956;2022-10-16T15:17:08;3.00;;;1.65;;
19848;SDS011;10085;51.120;6.956;2022-10-16T15:22:11;4.00;;;1.40;;
19848;SDS011;10085;51.120;6.956;2022-10-16T15:27:14;2.97;;;1.35;;
19848;SDS011;10085;51.120;6.956;2022-10-16T15:32:18;1.73;;;1.38;;
19848;SDS011;10085;51.120;6.956;2022-10-16T15:37:21;3.88;;;1.63;;
19848;SDS011;10085;51.120;6.956;2022-10-16T15:42:24;2.60;;;1.65;;
19848;SDS011;10085;51.120;6.956;2022-10-16T15:47:28;2.63;;;1.50;;
19848;SDS011;10085;51.120;6.956;2022-10-16T15:52:31;2.45;;;1.65;;
19848;SDS011;10085;51.120;6.956;2022-10-16T15:57:34;3.45;;;1.40;;
19848;SDS011;10085;51.120;6.956;2022-10-16T16:02:40;2.30;;;1.58;;
19848;SDS011;10085;51.120;6.956;2022-10-16T16:07:44;2.20;;;1.60;;
19848;SDS011;10085;51.120;6.956;2022-10-16T16:12:47;2.53;;;1.55;;
19848;SDS011;10085;51.120;6.956;2022-10-16T16:17:54;3.33;;;1.50;;
19848;SDS011;10085;51.120;6.956;2022-10-16T16:22:57;2.13;;;1.50;;
19848;SDS011;10085;51.120;6.956;2022-10-16T16:28:00;2.25;;;1.50;;
19848;SDS011;10085;51.120;6.956;2022-10-16T16:33:04;2.08;;;1.60;;
19848;SDS011;10085;51.120;6.956;2022-10-16T16:38:06;2.10;;;1.48;;
19848;SDS011;10085;51.120;6.956;2022-10-16T16:43:09;2.03;;;1.50;;
19848;SDS011;10085;51.120;6.956;2022-10-16T16:48:13;2.72;;;1.67;;
19848;SDS011;10085;51.120;6.956;2022-10-16T16:53:16;3.13;;;1.73;;
19848;SDS011;10085;51.120;6.956;2022-10-16T16:58:19;2.08;;;1.60;;
19848;SDS011;10085;51.120;6.956;2022-10-16T17:03:23;2.30;;;1.42;;
19848;SDS011;10085;51.120;6.956;2022-10-16T17:08:26;1.92;;;1.35;;
19848;SDS011;10085;51.120;6.956;2022-10-16T17:13:30;3.00;;;1.60;;
19848;SDS011;10085;51.120;6.956;2022-10-16T17:18:37;1.83;;;1.30;;
19848;SDS011;10085;51.120;6.956;2022-10-16T17:23:40;1.92;;;1.30;;
19848;SDS011;10085;51.120;6.956;2022-10-16T17:28:43;2.08;;;1.40;;
19848;SDS011;10085;51.120;6.956;2022-10-16T17:33:47;3.10;;;1.48;;
19848;SDS011;10085;51.120;6.956;2022-10-16T17:38:51;2.47;;;1.50;;
19848;SDS011;10085;51.120;6.956;2022-10-16T17:43:54;2.47;;;1.30;;
19848;SDS011;10085;51.120;6.956;2022-10-16T17:48:58;2.25;;;1.40;;
19848;SDS011;10085;51.120;6.956;2022-10-16T17:54:01;1.55;;;1.40;;
19848;SDS011;10085;51.120;6.956;2022-10-16T17:59:04;2.88;;;1.42;;
19848;SDS011;10085;51.120;6.956;2022-10-16T18:04:09;2.95;;;1.60;;
19848;SDS011;10085;51.120;6.956;2022-10-16T18:09:14;2.03;;;1.40;;
19848;SDS011;10085;51.120;6.956;2022-10-16T18:14:19;1.98;;;1.40;;
19848;SDS011;10085;51.120;6.956;2022-10-16T18:19:23;3.10;;;1.40;;
19848;SDS011;10085;51.120;6.956;2022-10-16T18:24:26;3.75;;;1.50;;
19848;SDS011;10085;51.120;6.956;2022-10-16T18:29:29;2.15;;;1.50;;
19848;SDS011;10085;51.120;6.956;2022-10-16T18:39:37;3.72;;;1.60;;
19848;SDS011;10085;51.120;6.956;2022-10-16T18:44:40;2.00;;;1.40;;
19848;SDS011;10085;51.120;6.956;2022-10-16T18:49:44;2.28;;;1.42;;
19848;SDS011;10085;51.120;6.956;2022-10-16T18:54:53;1.90;;;1.50;;
19848;SDS011;10085;51.120;6.956;2022-10-16T18:59:57;1.75;;;1.30;;
19848;SDS011;10085;51.120;6.956;2022-10-16T19:05:01;2.08;;;1.40;;
19848;SDS011;10085;51.120;6.956;2022-10-16T19:10:07;2.05;;;1.40;;
19848;SDS011;10085;51.120;6.956;2022-10-16T19:15:10;2.33;;;1.42;;
19848;SDS011;10085;51.120;6.956;2022-10-16T19:20:14;2.63;;;1.35;;
19848;SDS011;10085;51.120;6.956;2022-10-16T19:25:17;2.58;;;1.35;;
19848;SDS011;10085;51.120;6.956;2022-10-16T19:30:22;1.92;;;1.40;;
19848;SDS011;10085;51.120;6.956;2022-10-16T19:35:27;1.85;;;1.20;;
19848;SDS011;10085;51.120;6.956;2022-10-16T19:40:29;2.20;;;1.48;;
19848;SDS011;10085;51.120;6.956;2022-10-16T19:45:32;2.88;;;1.60;;
19848;SDS011;10085;51.120;6.956;2022-10-16T19:50:37;3.25;;;1.40;;
19848;SDS011;10085;51.120;6.956;2022-10-16T19:55:56;1.40;;;1.30;;
19848;SDS011;10085;51.120;6.956;2022-10-16T20:00:59;2.63;;;1.50;;
19848;SDS011;10085;51.120;6.956;2022-10-16T20:06:03;1.55;;;1.30;;
19848;SDS011;10085;51.120;6.956;2022-10-16T20:11:09;3.22;;;1.58;;
19848;SDS011;10085;51.120;6.956;2022-10-16T20:16:13;1.88;;;1.42;;
19848;SDS011;10085;51.120;6.956;2022-10-16T20:21:21;2.33;;;1.35;;
19848;SDS011;10085;51.120;6.956;2022-10-16T20:26:25;2.28;;;1.52;;
19848;SDS011;10085;51.120;6.956;2022-10-16T20:31:29;3.17;;;1.40;;
19848;SDS011;10085;51.120;6.956;2022-10-16T20:36:34;1.70;;;1.40;;
19848;SDS011;10085;51.120;6.956;2022-10-16T20:41:38;2.83;;;1.30;;
19848;SDS011;10085;51.120;6.956;2022-10-16T20:46:41;1.35;;;1.20;;
19848;SDS011;10085;51.120;6.956;2022-10-16T20:51:45;4.63;;;1.80;;
19848;SDS011;10085;51.120;6.956;2022-10-16T20:56:50;1.77;;;1.30;;
19848;SDS011;10085;51.120;6.956;2022-10-16T21:01:53;2.60;;;1.40;;
19848;SDS011;10085;51.120;6.956;2022-10-16T21:06:57;2.53;;;1.50;;
19848;SDS011;10085;51.120;6.956;2022-10-16T21:12:00;2.72;;;1.60;;
19848;SDS011;10085;51.120;6.956;2022-10-16T21:17:03;3.42;;;1.50;;
19848;SDS011;10085;51.120;6.956;2022-10-16T21:22:07;2.58;;;1.40;;
19848;SDS011;10085;51.120;6.956;2022-10-16T21:27:10;3.15;;;1.40;;
19848;SDS011;10085;51.120;6.956;2022-10-16T21:32:13;1.40;;;1.30;;
19848;SDS011;10085;51.120;6.956;2022-10-16T21:37:17;2.22;;;1.30;;
19848;SDS011;10085;51.120;6.956;2022-10-16T21:42:20;3.67;;;1.70;;
19848;SDS011;10085;51.120;6.956;2022-10-16T21:47:22;1.60;;;1.30;;
19848;SDS011;10085;51.120;6.956;2022-10-16T21:52:26;2.00;;;1.33;;
19848;SDS011;10085;51.120;6.956;2022-10-16T21:57:30;2.35;;;1.63;;
19848;SDS011;10085;51.120;6.956;2022-10-16T22:02:32;3.00;;;1.60;;
19848;SDS011;10085;51.120;6.956;2022-10-16T22:07:36;1.77;;;1.45;;
19848;SDS011;10085;51.120;6.956;2022-10-16T22:12:39;2.10;;;1.42;;
19848;SDS011;10085;51.120;6.956;2022-10-16T22:17:42;1.73;;;1.42;;
19848;SDS011;10085;51.120;6.956;2022-10-16T22:22:46;2.30;;;1.55;;
19848;SDS011;10085;51.120;6.956;2022-10-16T22:27:49;2.08;;;1.60;;
19848;SDS011;10085;51.120;6.956;2022-10-16T22:32:51;2.72;;;1.55;;
19848;SDS011;10085;51.120;6.956;2022-10-16T22:37:55;1.58;;;1.25;;
19848;SDS011;10085;51.120;6.956;2022-10-16T22:42:58;2.28;;;1.38;;
19848;SDS011;10085;51.120;6.956;2022-10-16T22:48:03;2.75;;;1.70;;
19848;SDS011;10085;51.120;6.956;2022-10-16T22:53:08;3.53;;;1.60;;
19848;SDS011;10085;51.120;6.956;2022-10-16T22:58:11;2.53;;;1.55;;
19848;SDS011;10085;51.120;6.956;2022-10-16T23:03:13;2.40;;;1.40;;
19848;SDS011;10085;51.120;6.956;2022-10-16T23:08:18;2.03;;;1.45;;
19848;SDS011;10085;51.120;6.956;2022-10-16T23:13:20;2.20;;;1.70;;
19848;SDS011;10085;51.120;6.956;2022-10-16T23:18:23;3.55;;;1.40;;
19848;SDS011;10085;51.120;6.956;2022-10-16T23:23:27;2.88;;;1.70;;
19848;SDS011;10085;51.120;6.956;2022-10-16T23:28:30;3.15;;;1.77;;
19848;SDS011;10085;51.120;6.956;2022-10-16T23:33:33;4.88;;;1.70;;
19848;SDS011;10085;51.120;6.956;2022-10-16T23:38:38;1.35;;;1.20;;
19848;SDS011;10085;51.120;6.956;2022-10-16T23:43:41;2.30;;;1.50;;
19848;SDS011;10085;51.120;6.956;2022-10-16T23:48:44;1.92;;;1.42;;
19848;SDS011;10085;51.120;6.956;2022-10-16T23:53:48;3.67;;;1.63;;
19848;SDS011;10085;51.120;6.956;2022-10-16T23:58:52;4.70;;;1.50;;
